createdAt,value
2023-02-23T00:01:31.611Z,98760.63
2023-02-23T00:04:05.548Z,98760.13
2023-02-23T00:06:38.830Z,98759.53
2023-02-23T00:09:23.308Z,98764.97
2023-02-23T00:11:58.033Z,98766.25
2023-02-23T00:14:32.517Z,98763.16
2023-02-23T00:17:05.519Z,98758.09
2023-02-23T00:19:38.444Z,98756.75
2023-02-23T00:22:12.036Z,98755.09
2023-02-23T00:24:47.394Z,98759.53
2023-02-23T00:27:20.883Z,98752.38
2023-02-23T00:29:55.297Z,98751.13
2023-02-23T00:32:28.658Z,98758.53
2023-02-23T00:35:01.970Z,98754.75
2023-02-23T00:37:35.774Z,98761.03
2023-02-23T00:40:13.050Z,98756.47
2023-02-23T00:42:47.374Z,98755.03
2023-02-23T00:45:21.590Z,98763.66
2023-02-23T00:47:54.528Z,98759.22
2023-02-23T00:50:29.671Z,98758.75
2023-02-23T00:53:02.501Z,98763.44
2023-02-23T00:55:35.395Z,98752.97
2023-02-23T00:58:09.909Z,98749.44
2023-02-23T01:00:44.281Z,98748.78
2023-02-23T01:03:17.497Z,98748.13
2023-02-23T01:05:51.032Z,98749.09
2023-02-23T01:08:24.529Z,98754.88
2023-02-23T01:10:57.656Z,98756.41
2023-02-23T01:13:30.597Z,98752.00
2023-02-23T01:16:07.438Z,98762.63
2023-02-23T01:18:42.253Z,98757.75
2023-02-23T01:21:17.122Z,98755.00
2023-02-23T01:23:50.836Z,98752.19
2023-02-23T01:26:25.481Z,98756.75
2023-02-23T01:29:03.060Z,98755.94
2023-02-23T01:31:39.012Z,98759.44
2023-02-23T01:34:14.191Z,98757.25
2023-02-23T01:36:47.146Z,98763.00
2023-02-23T01:39:22.028Z,98761.41
2023-02-23T01:41:55.013Z,98751.50
2023-02-23T01:45:18.879Z,98752.09
2023-02-23T01:47:55.957Z,98746.66
2023-02-23T01:50:34.185Z,98748.28
2023-02-23T01:53:07.634Z,98742.72
2023-02-23T01:55:41.063Z,98747.50
2023-02-23T01:58:19.698Z,98745.06
2023-02-23T02:00:56.851Z,98750.75
2023-02-23T02:03:36.571Z,98747.28
2023-02-23T02:06:14.259Z,98742.88
2023-02-23T02:08:50.827Z,98750.63
2023-02-23T02:11:30.886Z,98746.03
2023-02-23T02:14:12.885Z,98738.84
2023-02-23T02:17:02.485Z,98743.22
2023-02-23T02:20:12.834Z,98733.88
2023-02-23T02:23:09.787Z,98734.13
2023-02-23T02:26:03.808Z,98734.06
2023-02-23T02:29:13.201Z,98726.69
2023-02-23T02:32:14.176Z,98733.03
2023-02-23T02:35:38.202Z,98722.06
2023-02-23T02:38:27.082Z,98726.50
2023-02-23T02:41:06.898Z,98732.88
2023-02-23T02:43:51.236Z,98720.94
2023-02-23T02:46:28.938Z,98729.69
2023-02-23T02:49:08.013Z,98734.81
2023-02-23T02:51:45.842Z,98730.94
2023-02-23T02:54:26.832Z,98719.47
2023-02-23T02:57:04.582Z,98725.88
2023-02-23T03:00:02.544Z,98729.44
2023-02-23T03:02:55.748Z,98734.56
2023-02-23T03:05:53.089Z,98730.03
2023-02-23T03:08:54.667Z,98735.75
2023-02-23T03:11:54.945Z,98731.88
2023-02-23T03:14:56.318Z,98731.41
2023-02-23T03:17:56.422Z,98733.63
2023-02-23T03:20:56.363Z,98734.63
2023-02-23T03:23:59.015Z,98730.53
2023-02-23T03:26:57.688Z,98738.66
2023-02-23T03:29:55.639Z,98737.78
2023-02-23T03:32:51.040Z,98732.91
2023-02-23T03:35:46.437Z,98733.72
2023-02-23T03:38:41.670Z,98740.41
2023-02-23T03:41:36.683Z,98740.47
2023-02-23T03:44:33.843Z,98739.59
2023-02-23T03:47:26.793Z,98750.91
2023-02-23T03:50:21.575Z,98735.75
2023-02-23T03:53:17.017Z,98740.41
2023-02-23T03:56:13.643Z,98739.06
2023-02-23T03:59:08.946Z,98742.41
2023-02-23T04:02:01.490Z,98747.63
2023-02-23T04:04:53.443Z,98737.81
2023-02-23T04:07:44.212Z,98741.09
2023-02-23T04:10:35.289Z,98736.16
2023-02-23T04:13:14.894Z,98734.22
2023-02-23T04:15:52.974Z,98741.56
2023-02-23T04:18:29.646Z,98739.03
2023-02-23T04:21:03.585Z,98740.59
2023-02-23T04:23:38.142Z,98737.59
2023-02-23T04:26:10.984Z,98746.50
2023-02-23T04:28:43.778Z,98741.44
2023-02-23T04:31:19.075Z,98744.53
2023-02-23T04:33:54.784Z,98750.09
2023-02-23T04:36:28.350Z,98745.78
2023-02-23T04:39:01.412Z,98751.38
2023-02-23T04:41:34.365Z,98752.97
2023-02-23T04:44:07.235Z,98753.34
2023-02-23T04:46:40.295Z,98750.03
2023-02-23T04:49:14.580Z,98752.53
2023-02-23T04:51:47.725Z,98751.97
2023-02-23T04:54:21.188Z,98756.63
2023-02-23T04:56:54.170Z,98751.19
2023-02-23T04:59:28.609Z,98754.28
2023-02-23T05:02:01.491Z,98753.97
2023-02-23T05:04:36.098Z,98754.66
2023-02-23T05:07:09.560Z,98760.25
2023-02-23T05:09:42.609Z,98757.06
2023-02-23T05:12:15.559Z,98754.00
2023-02-23T05:14:48.315Z,98746.00
2023-02-23T05:17:21.237Z,98745.50
2023-02-23T05:19:56.288Z,98752.41
2023-02-23T05:22:29.175Z,98755.28
2023-02-23T05:25:02.180Z,98748.31
2023-02-23T05:27:35.265Z,98745.09
2023-02-23T05:30:09.963Z,98741.75
2023-02-23T05:32:42.874Z,98743.16
2023-02-23T05:35:17.251Z,98743.72
2023-02-23T05:37:50.094Z,98745.16
2023-02-23T05:40:35.630Z,98739.78
2023-02-23T05:43:35.549Z,98742.47
2023-02-23T05:46:43.559Z,98737.34
2023-02-23T05:49:25.068Z,98737.28
2023-02-23T05:52:13.570Z,98727.75
2023-02-23T05:54:55.315Z,98737.44
2023-02-23T05:57:50.966Z,98740.00
2023-02-23T06:00:24.462Z,98744.53
2023-02-23T06:02:57.602Z,98734.47
2023-02-23T06:05:30.428Z,98739.09
2023-02-23T06:08:04.673Z,98739.13
2023-02-23T06:10:37.997Z,98747.81
2023-02-23T06:13:11.224Z,98743.75
2023-02-23T06:15:44.831Z,98755.28
2023-02-23T06:18:18.191Z,98756.09
2023-02-23T06:20:51.041Z,98745.78
2023-02-23T06:23:25.360Z,98756.59
2023-02-23T06:25:59.569Z,98763.38
2023-02-23T06:28:32.381Z,98758.31
2023-02-23T06:31:06.847Z,98757.16
2023-02-23T06:33:39.887Z,98756.31
2023-02-23T06:36:14.164Z,98772.19
2023-02-23T06:38:48.431Z,98776.72
2023-02-23T06:41:21.494Z,98782.41
2023-02-23T06:43:54.556Z,98765.53
2023-02-23T06:46:27.419Z,98776.97
2023-02-23T06:49:01.000Z,98778.19
2023-02-23T06:51:33.937Z,98776.59
2023-02-23T06:54:08.234Z,98783.88
2023-02-23T06:56:41.121Z,98778.09
2023-02-23T06:59:13.985Z,98782.22
2023-02-23T07:01:47.340Z,98788.25
2023-02-23T07:04:20.635Z,98794.22
2023-02-23T07:06:54.278Z,98799.66
2023-02-23T07:09:30.619Z,98786.44
2023-02-23T07:12:04.404Z,98794.41
2023-02-23T07:14:37.938Z,98795.09
2023-02-23T07:17:12.564Z,98795.59
2023-02-23T07:19:46.339Z,98787.56
2023-02-23T07:22:19.470Z,98788.81
2023-02-23T07:24:53.776Z,98784.34
2023-02-23T07:27:27.655Z,98791.53
2023-02-23T07:30:00.515Z,98785.47
2023-02-23T07:32:33.471Z,98784.41
2023-02-23T07:35:07.455Z,98782.53
2023-02-23T07:37:40.230Z,98797.75
2023-02-23T07:40:15.611Z,98784.78
2023-02-23T07:42:48.489Z,98782.59
2023-02-23T07:45:21.620Z,98789.31
2023-02-23T07:47:54.376Z,98787.09
2023-02-23T07:50:27.288Z,98787.97
2023-02-23T07:53:00.538Z,98788.59
2023-02-23T07:55:34.792Z,98784.25
2023-02-23T07:58:07.811Z,98790.38
2023-02-23T08:00:40.881Z,98796.53
2023-02-23T08:03:13.960Z,98789.47
2023-02-23T08:05:47.229Z,98791.53
2023-02-23T08:08:20.623Z,98788.81
2023-02-23T08:11:00.778Z,98787.91
2023-02-23T08:13:34.209Z,98790.56
2023-02-23T08:16:07.525Z,98779.41
2023-02-23T08:18:40.380Z,98787.91
2023-02-23T08:21:13.334Z,98777.91
2023-02-23T08:23:46.465Z,98788.78
2023-02-23T08:26:20.756Z,98786.41
2023-02-23T08:28:55.793Z,98788.59
2023-02-23T08:31:28.877Z,98784.81
2023-02-23T08:34:02.422Z,98786.44
2023-02-23T08:36:35.224Z,98776.31
2023-02-23T08:39:10.161Z,98790.59
2023-02-23T08:41:44.736Z,98790.09
2023-02-23T08:44:17.587Z,98794.16
2023-02-23T08:46:50.780Z,98801.88
2023-02-23T08:49:24.146Z,98805.78
2023-02-23T08:51:56.902Z,98804.31
2023-02-23T08:54:30.554Z,98806.50
2023-02-23T08:57:05.122Z,98805.19
2023-02-23T08:59:39.192Z,98817.38
2023-02-23T09:02:14.475Z,98822.00
2023-02-23T09:04:47.363Z,98816.50
2023-02-23T09:07:20.486Z,98815.38
2023-02-23T09:09:56.839Z,98822.16
2023-02-23T09:12:38.025Z,98818.66
2023-02-23T09:15:14.948Z,98825.22
2023-02-23T09:17:48.948Z,98826.75
2023-02-23T09:20:27.621Z,98826.28
2023-02-23T09:23:01.161Z,98831.41
2023-02-23T09:25:34.196Z,98835.97
2023-02-23T09:28:08.382Z,98843.09
2023-02-23T09:30:41.973Z,98838.91
2023-02-23T09:33:15.015Z,98836.56
2023-02-23T09:35:48.229Z,98842.84
2023-02-23T09:38:21.225Z,98838.41
2023-02-23T09:40:56.383Z,98843.31
2023-02-23T09:43:41.027Z,98843.13
2023-02-23T09:46:29.725Z,98841.28
2023-02-23T09:49:04.829Z,98846.44
2023-02-23T09:51:42.544Z,98836.94
2023-02-23T09:54:17.763Z,98844.00
2023-02-23T09:56:53.391Z,98844.34
2023-02-23T09:59:28.920Z,98840.06
2023-02-23T10:02:12.053Z,98843.72
2023-02-23T10:04:48.164Z,98840.28
2023-02-23T10:07:27.445Z,98845.34
2023-02-23T10:10:14.962Z,98846.94
2023-02-23T10:12:56.434Z,98856.06
2023-02-23T10:15:38.281Z,98859.00
2023-02-23T10:18:28.662Z,98846.78
2023-02-23T10:21:10.706Z,98852.66
2023-02-23T10:23:49.481Z,98854.56
2023-02-23T10:26:25.166Z,98855.88
2023-02-23T10:29:00.030Z,98857.78
2023-02-23T10:31:41.138Z,98850.72
2023-02-23T10:34:16.957Z,98848.03
2023-02-23T10:36:58.607Z,98848.47
2023-02-23T10:39:32.850Z,98849.31
2023-02-23T10:42:12.273Z,98845.47
2023-02-23T10:44:46.836Z,98834.91
2023-02-23T10:47:24.280Z,98840.06
2023-02-23T10:49:58.480Z,98837.38
2023-02-23T10:52:41.516Z,98837.56
2023-02-23T10:55:24.577Z,98839.00
2023-02-23T10:58:09.640Z,98835.31
2023-02-23T11:00:42.623Z,98837.97
2023-02-23T11:03:26.853Z,98839.25
2023-02-23T11:06:00.206Z,98840.22
2023-02-23T11:08:34.934Z,98839.38
2023-02-23T11:11:20.085Z,98836.50
2023-02-23T11:13:54.090Z,98835.84
2023-02-23T11:16:31.012Z,98845.78
2023-02-23T11:19:07.271Z,98848.91
2023-02-23T11:21:41.387Z,98841.97
2023-02-23T11:24:22.009Z,98850.69
2023-02-23T11:26:58.115Z,98849.22
2023-02-23T11:29:35.648Z,98841.19
2023-02-23T11:32:14.210Z,98835.41
2023-02-23T11:34:50.229Z,98832.31
2023-02-23T11:37:26.321Z,98831.47
2023-02-23T11:40:01.947Z,98831.78
2023-02-23T11:42:35.291Z,98837.53
2023-02-23T11:45:16.377Z,98835.19
2023-02-23T11:47:52.264Z,98831.75
2023-02-23T11:50:29.277Z,98837.50
2023-02-23T11:53:06.416Z,98832.97
2023-02-23T11:55:40.104Z,98830.09
2023-02-23T11:58:24.668Z,98836.22
2023-02-23T12:01:00.144Z,98830.69
2023-02-23T12:03:35.421Z,98838.91
2023-02-23T12:06:11.066Z,98827.16
2023-02-23T12:08:48.746Z,98829.72
2023-02-23T12:11:28.670Z,98832.19
2023-02-23T12:14:12.635Z,98818.09
2023-02-23T12:16:52.022Z,98821.22
2023-02-23T12:19:29.276Z,98815.63
2023-02-23T12:22:08.216Z,98809.41
2023-02-23T12:24:45.649Z,98817.44
2023-02-23T12:27:25.781Z,98817.59
2023-02-23T12:30:11.094Z,98813.41
2023-02-23T12:32:49.601Z,98823.06
2023-02-23T12:35:29.558Z,98825.28
2023-02-23T12:38:14.984Z,98812.06
2023-02-23T12:40:50.456Z,98809.31
2023-02-23T12:43:33.961Z,98805.84
2023-02-23T12:46:12.609Z,98802.31
2023-02-23T12:48:52.852Z,98802.97
2023-02-23T12:51:32.170Z,98798.13
2023-02-23T12:54:07.051Z,98796.78
2023-02-23T12:56:52.000Z,98794.69
2023-02-23T12:59:57.677Z,98788.78
2023-02-23T13:02:34.452Z,98786.16
2023-02-23T13:05:28.491Z,98792.56
2023-02-23T13:08:13.998Z,98786.16
2023-02-23T13:10:56.697Z,98779.13
2023-02-23T13:13:39.505Z,98790.22
2023-02-23T13:16:22.669Z,98782.56
2023-02-23T13:19:06.700Z,98783.69
2023-02-23T13:21:46.399Z,98786.47
2023-02-23T13:24:21.650Z,98779.88
2023-02-23T13:27:03.102Z,98794.16
2023-02-23T13:29:39.930Z,98784.13
2023-02-23T13:32:15.021Z,98775.84
2023-02-23T13:34:54.646Z,98780.66
2023-02-23T13:37:32.416Z,98783.41
2023-02-23T13:40:20.212Z,98780.72
2023-02-23T13:43:07.793Z,98783.59
2023-02-23T13:45:58.610Z,98783.09
2023-02-23T13:48:56.242Z,98773.72
2023-02-23T13:51:39.362Z,98776.56
2023-02-23T13:54:25.442Z,98778.09
2023-02-23T13:57:01.374Z,98768.50
2023-02-23T13:59:43.728Z,98764.38
2023-02-23T14:02:36.493Z,98764.69
2023-02-23T14:05:19.670Z,98769.19
2023-02-23T14:07:55.519Z,98771.69
2023-02-23T14:10:30.872Z,98775.25
2023-02-23T14:13:25.522Z,98773.53
2023-02-23T14:16:20.113Z,98771.69
2023-02-23T14:19:13.279Z,98777.09
2023-02-23T14:21:52.256Z,98772.41
2023-02-23T14:24:26.339Z,98768.84
2023-02-23T14:27:34.157Z,98770.25
2023-02-23T14:30:27.979Z,98767.69
2023-02-23T14:33:21.246Z,98762.28
2023-02-23T14:35:56.062Z,98760.59
2023-02-23T14:38:47.129Z,98760.47
2023-02-23T14:41:23.232Z,98766.44
2023-02-23T14:44:00.034Z,98767.44
2023-02-23T14:46:35.041Z,98762.28
2023-02-23T14:49:16.518Z,98762.94
2023-02-23T14:51:52.419Z,98764.97
2023-02-23T14:54:28.509Z,98768.81
2023-02-23T14:57:03.863Z,98757.44
2023-02-23T14:59:39.301Z,98766.38
2023-02-23T15:02:13.738Z,98752.16
2023-02-23T15:04:48.155Z,98756.16
2023-02-23T15:07:27.980Z,98760.97
2023-02-23T15:10:02.492Z,98763.06
2023-02-23T15:12:38.808Z,98764.28
2023-02-23T15:15:20.019Z,98762.41
2023-02-23T15:17:55.978Z,98768.44
2023-02-23T15:23:07.361Z,98770.94
2023-02-23T15:25:42.128Z,98763.66
2023-02-23T15:28:23.412Z,98763.59
2023-02-23T15:31:00.589Z,98770.25
2023-02-23T15:33:34.213Z,98767.28
2023-02-23T15:36:15.951Z,98768.06
2023-02-23T15:38:51.528Z,98764.03
2023-02-23T15:41:30.069Z,98767.38
2023-02-23T15:44:11.087Z,98773.38
2023-02-23T15:46:46.319Z,98767.19
2023-02-23T15:49:21.935Z,98773.06
2023-02-23T15:52:00.504Z,98764.88
2023-02-23T15:54:37.792Z,98772.50
2023-02-23T15:57:22.633Z,98773.09
2023-02-23T15:59:59.344Z,98772.09
2023-02-23T16:02:32.214Z,98778.00
2023-02-23T16:05:20.334Z,98771.91
2023-02-23T16:08:06.523Z,98774.06
2023-02-23T16:10:46.122Z,98776.94
2023-02-23T16:13:23.313Z,98779.06
2023-02-23T16:15:57.121Z,98775.88
2023-02-23T16:18:40.838Z,98767.38
2023-02-23T16:21:19.192Z,98772.31
2023-02-23T16:23:55.184Z,98770.16
2023-02-23T16:26:32.507Z,98770.28
2023-02-23T16:29:05.917Z,98777.91
2023-02-23T16:31:44.749Z,98764.00
2023-02-23T16:34:27.842Z,98778.94
2023-02-23T16:37:03.186Z,98781.38
2023-02-23T16:39:37.400Z,98774.88
2023-02-23T16:42:20.405Z,98773.50
2023-02-23T16:44:53.354Z,98775.19
2023-02-23T16:47:36.530Z,98772.94
2023-02-23T16:50:20.096Z,98768.59
2023-02-23T16:52:54.416Z,98776.78
2023-02-23T16:55:30.548Z,98768.47
2023-02-23T16:58:04.964Z,98780.22
2023-02-23T17:00:38.256Z,98782.38
2023-02-23T17:03:24.889Z,98775.09
2023-02-23T17:05:58.093Z,98779.81
2023-02-23T17:08:31.988Z,98773.19
2023-02-23T17:11:06.974Z,98773.09
2023-02-23T17:13:40.089Z,98781.94
2023-02-23T17:16:14.759Z,98780.13
2023-02-23T17:18:48.925Z,98780.25
2023-02-23T17:21:23.868Z,98780.81
2023-02-23T17:24:02.897Z,98788.09
2023-02-23T17:26:37.146Z,98782.06
2023-02-23T17:29:21.602Z,98785.84
2023-02-23T17:31:54.542Z,98792.13
2023-02-23T17:34:28.253Z,98786.63
2023-02-23T17:37:01.547Z,98788.75
2023-02-23T17:39:37.370Z,98791.66
2023-02-23T17:42:11.809Z,98798.34
2023-02-23T17:44:45.570Z,98795.00
2023-02-23T17:47:19.065Z,98800.63
2023-02-23T17:49:52.211Z,98805.41
2023-02-23T17:52:25.181Z,98796.69
2023-02-23T17:55:00.580Z,98791.97
2023-02-23T17:57:37.024Z,98790.19
2023-02-23T18:00:13.616Z,98789.88
2023-02-23T18:02:54.489Z,98790.63
2023-02-23T18:05:28.300Z,98783.66
2023-02-23T18:08:03.610Z,98796.16
2023-02-23T18:10:36.863Z,98796.16
2023-02-23T18:13:11.100Z,98787.09
2023-02-23T18:15:48.436Z,98795.81
2023-02-23T18:18:22.482Z,98794.34
2023-02-23T18:20:57.178Z,98795.41
2023-02-23T18:23:32.828Z,98794.03
2023-02-23T18:26:07.495Z,98783.97
2023-02-23T18:28:44.487Z,98786.53
2023-02-23T18:31:21.060Z,98786.63
2023-02-23T18:33:54.685Z,98782.56
2023-02-23T18:36:29.982Z,98795.81
2023-02-23T18:39:06.285Z,98777.31
2023-02-23T18:41:39.367Z,98793.47
2023-02-23T18:44:15.653Z,98782.56
2023-02-23T18:46:48.742Z,98782.91
2023-02-23T18:49:23.626Z,98773.06
2023-02-23T18:51:56.604Z,98777.03
2023-02-23T18:54:29.647Z,98783.31
2023-02-23T18:57:03.025Z,98780.53
2023-02-23T18:59:37.192Z,98778.03
2023-02-23T19:02:11.487Z,98774.72
2023-02-23T19:04:45.212Z,98776.50
2023-02-23T19:07:19.128Z,98767.94
2023-02-23T19:09:52.322Z,98768.47
2023-02-23T19:12:25.157Z,98768.69
2023-02-23T19:14:59.810Z,98771.28
2023-02-23T19:17:34.832Z,98766.09
2023-02-23T19:20:13.640Z,98774.81
2023-02-23T19:22:47.078Z,98771.03
2023-02-23T19:25:19.947Z,98770.78
2023-02-23T19:27:54.804Z,98769.78
2023-02-23T19:30:29.281Z,98770.09
2023-02-23T19:33:02.714Z,98774.03
2023-02-23T19:35:42.034Z,98773.06
2023-02-23T19:38:20.123Z,98765.91
2023-02-23T19:40:53.653Z,98768.13
2023-02-23T19:43:26.909Z,98775.84
2023-02-23T19:46:05.636Z,98779.28
2023-02-23T19:48:39.041Z,98773.25
2023-02-23T19:51:12.458Z,98775.19
2023-02-23T19:53:45.465Z,98784.16
2023-02-23T19:56:18.716Z,98777.97
2023-02-23T19:58:51.668Z,98778.69
2023-02-23T20:01:27.636Z,98777.03
2023-02-23T20:04:06.664Z,98772.44
2023-02-23T20:06:44.692Z,98775.84
2023-02-23T20:09:18.080Z,98773.97
2023-02-23T20:11:51.234Z,98773.00
2023-02-23T20:14:24.968Z,98771.41
2023-02-23T20:16:59.204Z,98782.22
2023-02-23T20:19:32.118Z,98778.75
2023-02-23T20:22:09.039Z,98774.63
2023-02-23T20:24:41.839Z,98775.75
2023-02-23T20:27:14.639Z,98774.66
2023-02-23T20:29:48.062Z,98775.78
2023-02-23T20:32:22.356Z,98770.13
2023-02-23T20:34:55.862Z,98776.91
2023-02-23T20:37:29.112Z,98775.69
2023-02-23T20:40:01.939Z,98777.66
2023-02-23T20:42:34.740Z,98781.63
2023-02-23T20:45:08.520Z,98775.53
2023-02-23T20:47:43.041Z,98782.19
2023-02-23T20:50:16.280Z,98784.06
2023-02-23T20:52:49.989Z,98784.56
2023-02-23T20:55:26.330Z,98782.44
2023-02-23T20:57:59.364Z,98781.19
2023-02-23T21:00:33.076Z,98779.34
2023-02-23T21:03:07.802Z,98778.19
2023-02-23T21:05:41.827Z,98776.78
2023-02-23T21:08:15.037Z,98779.72
2023-02-23T21:10:50.457Z,98776.94
2023-02-23T21:14:06.714Z,98778.38
2023-02-23T21:16:51.773Z,98779.03
2023-02-23T21:19:26.846Z,98774.09
2023-02-23T21:22:16.486Z,98775.66
2023-02-23T21:24:49.442Z,98770.75
2023-02-23T21:27:31.862Z,98773.00
2023-02-23T21:30:10.798Z,98766.75
2023-02-23T21:32:43.954Z,98761.38
2023-02-23T21:35:19.908Z,98766.94
2023-02-23T21:37:53.750Z,98771.69
2023-02-23T21:40:27.020Z,98767.31
2023-02-23T21:43:01.251Z,98773.81
2023-02-23T21:45:34.173Z,98771.34
2023-02-23T21:48:07.108Z,98764.03
2023-02-23T21:50:41.862Z,98758.53
2023-02-23T21:53:15.024Z,98764.03
2023-02-23T21:55:47.980Z,98763.44
2023-02-23T21:58:21.529Z,98764.75
2023-02-23T22:00:55.394Z,98759.81
2023-02-23T22:03:29.383Z,98771.59
2023-02-23T22:06:03.618Z,98770.13
2023-02-23T22:08:36.577Z,98763.00
2023-02-23T22:11:10.790Z,98763.63
2023-02-23T22:13:43.655Z,98764.03
2023-02-23T22:16:19.797Z,98763.34
2023-02-23T22:18:52.794Z,98759.50
2023-02-23T22:21:27.377Z,98766.56
2023-02-23T22:24:01.215Z,98758.53
2023-02-23T22:26:35.998Z,98760.53
2023-02-23T22:29:10.923Z,98757.66
2023-02-23T22:31:43.818Z,98758.03
2023-02-23T22:34:18.324Z,98755.88
2023-02-23T22:36:52.542Z,98748.91
2023-02-23T22:39:25.319Z,98754.53
2023-02-23T22:41:59.898Z,98748.66
2023-02-23T22:44:32.742Z,98753.72
2023-02-23T22:47:06.001Z,98747.75
2023-02-23T22:49:38.860Z,98746.66
2023-02-23T22:52:13.440Z,98750.78
2023-02-23T22:54:48.139Z,98747.47
2023-02-23T22:57:20.948Z,98744.97
2023-02-23T23:00:00.010Z,98743.94
2023-02-23T23:02:33.581Z,98748.88
2023-02-23T23:05:08.233Z,98749.00
2023-02-23T23:07:46.523Z,98743.81
2023-02-23T23:10:19.858Z,98733.75
2023-02-23T23:12:53.051Z,98741.06
2023-02-23T23:15:25.879Z,98737.03
2023-02-23T23:17:58.711Z,98731.28
2023-02-23T23:20:32.030Z,98726.19
2023-02-23T23:23:07.122Z,98725.03
2023-02-23T23:25:42.400Z,98729.91
2023-02-23T23:28:15.485Z,98732.31
2023-02-23T23:30:52.360Z,98727.59
2023-02-23T23:33:26.922Z,98721.41
2023-02-23T23:36:02.489Z,98724.91
2023-02-23T23:38:38.561Z,98727.84
2023-02-23T23:41:13.646Z,98720.03
2023-02-23T23:43:48.615Z,98722.81
2023-02-23T23:46:24.484Z,98725.72
2023-02-23T23:49:02.117Z,98721.81
2023-02-23T23:51:39.033Z,98724.66
2023-02-23T23:54:15.435Z,98714.03
2023-02-23T23:56:49.608Z,98708.91
2023-02-23T23:59:25.083Z,98702.44
